sensor_id;sensor_type;location;lat;lon;timestamp;P1;durP1;ratioP1;P2;durP2;ratioP2
16998;SDS011;10211;49.476;11.010;2022-12-07T00:01:20;6.03;;;4.63;;
16998;SDS011;10211;49.476;11.010;2022-12-07T00:03:49;4.90;;;3.97;;
16998;SDS011;10211;49.476;11.010;2022-12-07T00:06:18;5.43;;;4.73;;
16998;SDS011;10211;49.476;11.010;2022-12-07T00:08:46;5.13;;;4.67;;
16998;SDS011;10211;49.476;11.010;2022-12-07T00:11:14;4.90;;;4.33;;
16998;SDS011;10211;49.476;11.010;2022-12-07T00:13:42;5.97;;;4.40;;
16998;SDS011;10211;49.476;11.010;2022-12-07T00:16:10;6.80;;;4.87;;
16998;SDS011;10211;49.476;11.010;2022-12-07T00:18:38;5.27;;;4.77;;
16998;SDS011;10211;49.476;11.010;2022-12-07T00:21:07;5.40;;;4.80;;
16998;SDS011;10211;49.476;11.010;2022-12-07T00:23:38;6.57;;;4.90;;
16998;SDS011;10211;49.476;11.010;2022-12-07T00:26:05;5.93;;;4.70;;
16998;SDS011;10211;49.476;11.010;2022-12-07T00:28:33;6.27;;;4.67;;
16998;SDS011;10211;49.476;11.010;2022-12-07T00:31:01;6.27;;;4.50;;
16998;SDS011;10211;49.476;11.010;2022-12-07T00:33:29;7.07;;;5.33;;
16998;SDS011;10211;49.476;11.010;2022-12-07T00:35:56;8.90;;;5.20;;
16998;SDS011;10211;49.476;11.010;2022-12-07T00:38:23;7.07;;;5.13;;
16998;SDS011;10211;49.476;11.010;2022-12-07T00:40:57;5.43;;;4.90;;
16998;SDS011;10211;49.476;11.010;2022-12-07T00:43:24;7.10;;;5.17;;
16998;SDS011;10211;49.476;11.010;2022-12-07T00:45:51;6.07;;;5.23;;
16998;SDS011;10211;49.476;11.010;2022-12-07T00:48:18;7.00;;;5.90;;
16998;SDS011;10211;49.476;11.010;2022-12-07T00:50:46;5.93;;;5.33;;
16998;SDS011;10211;49.476;11.010;2022-12-07T00:53:13;5.63;;;4.73;;
16998;SDS011;10211;49.476;11.010;2022-12-07T00:55:40;7.50;;;5.37;;
16998;SDS011;10211;49.476;11.010;2022-12-07T00:58:08;6.03;;;5.33;;
16998;SDS011;10211;49.476;11.010;2022-12-07T01:00:36;11.70;;;5.40;;
16998;SDS011;10211;49.476;11.010;2022-12-07T01:03:05;6.93;;;5.73;;
16998;SDS011;10211;49.476;11.010;2022-12-07T01:05:34;5.30;;;4.60;;
16998;SDS011;10211;49.476;11.010;2022-12-07T01:08:02;8.07;;;5.17;;
16998;SDS011;10211;49.476;11.010;2022-12-07T01:10:29;7.40;;;5.27;;
16998;SDS011;10211;49.476;11.010;2022-12-07T01:12:57;7.50;;;5.63;;
16998;SDS011;10211;49.476;11.010;2022-12-07T01:15:26;9.97;;;5.93;;
16998;SDS011;10211;49.476;11.010;2022-12-07T01:17:53;7.33;;;5.63;;
16998;SDS011;10211;49.476;11.010;2022-12-07T01:20:21;8.47;;;6.13;;
16998;SDS011;10211;49.476;11.010;2022-12-07T01:22:49;10.30;;;6.07;;
16998;SDS011;10211;49.476;11.010;2022-12-07T01:25:17;7.40;;;6.43;;
16998;SDS011;10211;49.476;11.010;2022-12-07T01:27:47;8.43;;;6.23;;
16998;SDS011;10211;49.476;11.010;2022-12-07T01:30:18;9.00;;;6.50;;
16998;SDS011;10211;49.476;11.010;2022-12-07T01:32:50;6.77;;;5.20;;
16998;SDS011;10211;49.476;11.010;2022-12-07T01:35:17;7.10;;;5.70;;
16998;SDS011;10211;49.476;11.010;2022-12-07T01:37:44;7.97;;;5.73;;
16998;SDS011;10211;49.476;11.010;2022-12-07T01:40:11;8.17;;;6.20;;
16998;SDS011;10211;49.476;11.010;2022-12-07T01:42:43;6.73;;;5.97;;
16998;SDS011;10211;49.476;11.010;2022-12-07T01:48:07;7.77;;;5.97;;
16998;SDS011;10211;49.476;11.010;2022-12-07T01:50:36;8.00;;;5.90;;
16998;SDS011;10211;49.476;11.010;2022-12-07T01:53:06;7.00;;;5.87;;
16998;SDS011;10211;49.476;11.010;2022-12-07T01:55:37;7.03;;;5.93;;
16998;SDS011;10211;49.476;11.010;2022-12-07T01:58:07;8.73;;;6.30;;
16998;SDS011;10211;49.476;11.010;2022-12-07T02:00:35;6.87;;;6.17;;
16998;SDS011;10211;49.476;11.010;2022-12-07T02:03:04;9.30;;;5.60;;
16998;SDS011;10211;49.476;11.010;2022-12-07T02:05:37;7.53;;;5.70;;
16998;SDS011;10211;49.476;11.010;2022-12-07T02:08:06;9.90;;;6.37;;
16998;SDS011;10211;49.476;11.010;2022-12-07T02:10:34;10.80;;;5.93;;
16998;SDS011;10211;49.476;11.010;2022-12-07T02:13:03;7.17;;;6.00;;
16998;SDS011;10211;49.476;11.010;2022-12-07T02:15:35;8.47;;;6.50;;
16998;SDS011;10211;49.476;11.010;2022-12-07T02:18:14;10.10;;;7.00;;
16998;SDS011;10211;49.476;11.010;2022-12-07T02:20:47;10.63;;;6.50;;
16998;SDS011;10211;49.476;11.010;2022-12-07T02:23:28;10.03;;;7.17;;
16998;SDS011;10211;49.476;11.010;2022-12-07T02:29:13;12.03;;;6.27;;
16998;SDS011;10211;49.476;11.010;2022-12-07T02:31:49;9.70;;;6.60;;
16998;SDS011;10211;49.476;11.010;2022-12-07T02:34:22;8.83;;;6.23;;
16998;SDS011;10211;49.476;11.010;2022-12-07T02:36:57;9.07;;;6.50;;
16998;SDS011;10211;49.476;11.010;2022-12-07T02:39:29;8.60;;;6.23;;
16998;SDS011;10211;49.476;11.010;2022-12-07T02:42:02;11.40;;;7.93;;
16998;SDS011;10211;49.476;11.010;2022-12-07T02:44:40;8.57;;;6.33;;
16998;SDS011;10211;49.476;11.010;2022-12-07T02:47:09;12.13;;;7.57;;
16998;SDS011;10211;49.476;11.010;2022-12-07T02:49:38;8.47;;;6.67;;
16998;SDS011;10211;49.476;11.010;2022-12-07T02:52:06;9.80;;;7.57;;
16998;SDS011;10211;49.476;11.010;2022-12-07T02:54:33;9.07;;;6.83;;
16998;SDS011;10211;49.476;11.010;2022-12-07T02:57:01;10.43;;;6.67;;
16998;SDS011;10211;49.476;11.010;2022-12-07T02:59:38;8.10;;;5.93;;
16998;SDS011;10211;49.476;11.010;2022-12-07T03:02:17;9.73;;;6.63;;
16998;SDS011;10211;49.476;11.010;2022-12-07T03:04:52;8.23;;;6.07;;
16998;SDS011;10211;49.476;11.010;2022-12-07T03:07:31;11.37;;;6.30;;
16998;SDS011;10211;49.476;11.010;2022-12-07T03:10:06;9.30;;;6.43;;
16998;SDS011;10211;49.476;11.010;2022-12-07T03:12:42;10.67;;;7.23;;
16998;SDS011;10211;49.476;11.010;2022-12-07T03:15:20;10.53;;;6.67;;
16998;SDS011;10211;49.476;11.010;2022-12-07T03:17:55;11.73;;;7.10;;
16998;SDS011;10211;49.476;11.010;2022-12-07T03:20:25;9.87;;;6.73;;
16998;SDS011;10211;49.476;11.010;2022-12-07T03:22:58;10.30;;;7.17;;
16998;SDS011;10211;49.476;11.010;2022-12-07T03:25:26;10.30;;;7.20;;
16998;SDS011;10211;49.476;11.010;2022-12-07T03:27:54;8.43;;;6.93;;
16998;SDS011;10211;49.476;11.010;2022-12-07T03:30:26;12.20;;;8.23;;
16998;SDS011;10211;49.476;11.010;2022-12-07T03:32:58;8.43;;;6.40;;
16998;SDS011;10211;49.476;11.010;2022-12-07T03:35:31;8.43;;;6.50;;
16998;SDS011;10211;49.476;11.010;2022-12-07T03:38:02;9.63;;;6.80;;
16998;SDS011;10211;49.476;11.010;2022-12-07T03:40:39;9.33;;;6.60;;
16998;SDS011;10211;49.476;11.010;2022-12-07T03:43:10;9.40;;;6.83;;
16998;SDS011;10211;49.476;11.010;2022-12-07T03:45:40;9.40;;;6.30;;
16998;SDS011;10211;49.476;11.010;2022-12-07T03:48:08;9.37;;;6.50;;
16998;SDS011;10211;49.476;11.010;2022-12-07T03:50:48;8.93;;;6.90;;
16998;SDS011;10211;49.476;11.010;2022-12-07T03:53:20;8.57;;;6.77;;
16998;SDS011;10211;49.476;11.010;2022-12-07T03:55:50;10.77;;;7.17;;
16998;SDS011;10211;49.476;11.010;2022-12-07T03:58:21;9.90;;;7.93;;
16998;SDS011;10211;49.476;11.010;2022-12-07T04:00:51;10.63;;;6.80;;
16998;SDS011;10211;49.476;11.010;2022-12-07T04:03:20;13.20;;;6.93;;
16998;SDS011;10211;49.476;11.010;2022-12-07T04:05:47;11.50;;;7.67;;
16998;SDS011;10211;49.476;11.010;2022-12-07T04:08:16;11.60;;;6.93;;
16998;SDS011;10211;49.476;11.010;2022-12-07T04:10:43;8.60;;;6.27;;
16998;SDS011;10211;49.476;11.010;2022-12-07T04:13:10;12.67;;;8.00;;
16998;SDS011;10211;49.476;11.010;2022-12-07T04:15:38;10.07;;;7.03;;
16998;SDS011;10211;49.476;11.010;2022-12-07T04:18:06;10.23;;;6.27;;
16998;SDS011;10211;49.476;11.010;2022-12-07T04:20:33;17.87;;;7.73;;
16998;SDS011;10211;49.476;11.010;2022-12-07T04:23:00;13.30;;;8.17;;
16998;SDS011;10211;49.476;11.010;2022-12-07T04:25:27;10.33;;;7.10;;
16998;SDS011;10211;49.476;11.010;2022-12-07T04:27:54;10.83;;;7.07;;
16998;SDS011;10211;49.476;11.010;2022-12-07T04:30:21;11.97;;;8.93;;
16998;SDS011;10211;49.476;11.010;2022-12-07T04:32:48;9.70;;;7.07;;
16998;SDS011;10211;49.476;11.010;2022-12-07T04:35:16;12.20;;;8.10;;
16998;SDS011;10211;49.476;11.010;2022-12-07T04:37:43;15.67;;;8.43;;
16998;SDS011;10211;49.476;11.010;2022-12-07T04:40:10;11.60;;;7.33;;
16998;SDS011;10211;49.476;11.010;2022-12-07T04:42:39;12.63;;;8.43;;
16998;SDS011;10211;49.476;11.010;2022-12-07T04:45:07;12.27;;;7.90;;
16998;SDS011;10211;49.476;11.010;2022-12-07T04:47:34;13.80;;;8.70;;
16998;SDS011;10211;49.476;11.010;2022-12-07T04:50:01;13.33;;;7.63;;
16998;SDS011;10211;49.476;11.010;2022-12-07T04:52:31;14.50;;;9.20;;
16998;SDS011;10211;49.476;11.010;2022-12-07T04:54:59;12.23;;;8.17;;
16998;SDS011;10211;49.476;11.010;2022-12-07T04:57:25;11.47;;;8.60;;
16998;SDS011;10211;49.476;11.010;2022-12-07T04:59:52;13.50;;;7.70;;
16998;SDS011;10211;49.476;11.010;2022-12-07T05:02:19;13.73;;;8.33;;
16998;SDS011;10211;49.476;11.010;2022-12-07T05:04:46;14.60;;;8.90;;
16998;SDS011;10211;49.476;11.010;2022-12-07T05:07:13;17.37;;;9.60;;
16998;SDS011;10211;49.476;11.010;2022-12-07T05:09:42;19.53;;;10.77;;
16998;SDS011;10211;49.476;11.010;2022-12-07T05:12:08;12.70;;;8.60;;
16998;SDS011;10211;49.476;11.010;2022-12-07T05:14:35;14.90;;;9.77;;
16998;SDS011;10211;49.476;11.010;2022-12-07T05:17:02;15.30;;;9.13;;
16998;SDS011;10211;49.476;11.010;2022-12-07T05:19:30;17.23;;;9.27;;
16998;SDS011;10211;49.476;11.010;2022-12-07T05:21:56;14.90;;;9.37;;
16998;SDS011;10211;49.476;11.010;2022-12-07T05:24:23;14.60;;;9.37;;
16998;SDS011;10211;49.476;11.010;2022-12-07T05:26:51;11.17;;;8.50;;
16998;SDS011;10211;49.476;11.010;2022-12-07T05:29:18;14.57;;;9.70;;
16998;SDS011;10211;49.476;11.010;2022-12-07T05:31:45;14.67;;;9.23;;
16998;SDS011;10211;49.476;11.010;2022-12-07T05:34:12;17.93;;;8.67;;
16998;SDS011;10211;49.476;11.010;2022-12-07T05:36:38;14.70;;;9.27;;
16998;SDS011;10211;49.476;11.010;2022-12-07T05:39:05;15.03;;;8.73;;
16998;SDS011;10211;49.476;11.010;2022-12-07T05:41:33;13.50;;;8.73;;
16998;SDS011;10211;49.476;11.010;2022-12-07T05:44:18;13.23;;;9.53;;
16998;SDS011;10211;49.476;11.010;2022-12-07T05:46:45;12.17;;;9.03;;
16998;SDS011;10211;49.476;11.010;2022-12-07T05:49:12;13.60;;;9.10;;
16998;SDS011;10211;49.476;11.010;2022-12-07T05:51:39;14.33;;;8.63;;
16998;SDS011;10211;49.476;11.010;2022-12-07T05:54:08;16.97;;;9.00;;
16998;SDS011;10211;49.476;11.010;2022-12-07T05:56:35;12.90;;;8.77;;
16998;SDS011;10211;49.476;11.010;2022-12-07T05:59:03;11.47;;;8.27;;
16998;SDS011;10211;49.476;11.010;2022-12-07T06:01:49;14.20;;;8.83;;
16998;SDS011;10211;49.476;11.010;2022-12-07T06:04:16;14.67;;;8.77;;
16998;SDS011;10211;49.476;11.010;2022-12-07T06:06:45;13.27;;;9.47;;
16998;SDS011;10211;49.476;11.010;2022-12-07T06:09:12;15.63;;;8.93;;
16998;SDS011;10211;49.476;11.010;2022-12-07T06:11:43;17.57;;;9.40;;
16998;SDS011;10211;49.476;11.010;2022-12-07T06:14:27;17.03;;;9.37;;
16998;SDS011;10211;49.476;11.010;2022-12-07T06:16:55;13.10;;;9.00;;
16998;SDS011;10211;49.476;11.010;2022-12-07T06:19:22;16.50;;;9.03;;
16998;SDS011;10211;49.476;11.010;2022-12-07T06:21:49;14.90;;;9.97;;
16998;SDS011;10211;49.476;11.010;2022-12-07T06:24:17;12.37;;;8.60;;
16998;SDS011;10211;49.476;11.010;2022-12-07T06:26:44;16.00;;;9.60;;
16998;SDS011;10211;49.476;11.010;2022-12-07T06:29:12;13.30;;;9.23;;
16998;SDS011;10211;49.476;11.010;2022-12-07T06:31:39;15.53;;;9.93;;
16998;SDS011;10211;49.476;11.010;2022-12-07T06:34:09;14.13;;;8.67;;
16998;SDS011;10211;49.476;11.010;2022-12-07T06:36:37;16.67;;;9.93;;
16998;SDS011;10211;49.476;11.010;2022-12-07T06:39:05;16.97;;;11.13;;
16998;SDS011;10211;49.476;11.010;2022-12-07T06:41:34;16.97;;;10.03;;
16998;SDS011;10211;49.476;11.010;2022-12-07T06:44:00;17.43;;;9.77;;
16998;SDS011;10211;49.476;11.010;2022-12-07T06:46:27;14.40;;;9.40;;
16998;SDS011;10211;49.476;11.010;2022-12-07T06:48:54;13.07;;;9.43;;
16998;SDS011;10211;49.476;11.010;2022-12-07T06:51:25;13.90;;;8.73;;
16998;SDS011;10211;49.476;11.010;2022-12-07T06:53:52;16.47;;;9.47;;
16998;SDS011;10211;49.476;11.010;2022-12-07T06:56:18;14.17;;;9.07;;
16998;SDS011;10211;49.476;11.010;2022-12-07T06:58:45;14.13;;;9.10;;
16998;SDS011;10211;49.476;11.010;2022-12-07T07:01:12;13.83;;;9.03;;
16998;SDS011;10211;49.476;11.010;2022-12-07T07:03:41;16.30;;;10.50;;
16998;SDS011;10211;49.476;11.010;2022-12-07T07:06:08;14.00;;;8.77;;
16998;SDS011;10211;49.476;11.010;2022-12-07T07:08:38;14.77;;;9.80;;
16998;SDS011;10211;49.476;11.010;2022-12-07T07:11:06;14.80;;;9.43;;
16998;SDS011;10211;49.476;11.010;2022-12-07T07:13:34;16.77;;;9.17;;
16998;SDS011;10211;49.476;11.010;2022-12-07T07:16:01;15.00;;;8.80;;
16998;SDS011;10211;49.476;11.010;2022-12-07T07:18:29;13.17;;;9.13;;
16998;SDS011;10211;49.476;11.010;2022-12-07T07:20:56;14.47;;;9.20;;
16998;SDS011;10211;49.476;11.010;2022-12-07T07:23:23;12.50;;;9.37;;
16998;SDS011;10211;49.476;11.010;2022-12-07T07:25:51;14.63;;;9.53;;
16998;SDS011;10211;49.476;11.010;2022-12-07T07:28:19;11.80;;;8.63;;
16998;SDS011;10211;49.476;11.010;2022-12-07T07:30:46;12.13;;;7.63;;
16998;SDS011;10211;49.476;11.010;2022-12-07T07:33:13;12.63;;;8.40;;
16998;SDS011;10211;49.476;11.010;2022-12-07T07:35:40;16.33;;;10.07;;
16998;SDS011;10211;49.476;11.010;2022-12-07T07:38:07;16.20;;;9.47;;
16998;SDS011;10211;49.476;11.010;2022-12-07T07:40:34;11.30;;;7.57;;
16998;SDS011;10211;49.476;11.010;2022-12-07T07:43:03;13.53;;;8.77;;
16998;SDS011;10211;49.476;11.010;2022-12-07T07:45:29;18.80;;;9.10;;
16998;SDS011;10211;49.476;11.010;2022-12-07T07:47:56;16.57;;;9.67;;
16998;SDS011;10211;49.476;11.010;2022-12-07T07:50:23;14.93;;;9.73;;
16998;SDS011;10211;49.476;11.010;2022-12-07T07:52:50;15.13;;;10.40;;
16998;SDS011;10211;49.476;11.010;2022-12-07T07:55:19;15.57;;;9.50;;
16998;SDS011;10211;49.476;11.010;2022-12-07T07:57:45;16.20;;;9.67;;
16998;SDS011;10211;49.476;11.010;2022-12-07T08:00:15;16.10;;;9.97;;
16998;SDS011;10211;49.476;11.010;2022-12-07T08:02:42;15.93;;;9.93;;
16998;SDS011;10211;49.476;11.010;2022-12-07T08:05:11;16.23;;;10.93;;
16998;SDS011;10211;49.476;11.010;2022-12-07T08:07:39;15.03;;;9.50;;
16998;SDS011;10211;49.476;11.010;2022-12-07T08:10:06;15.80;;;8.73;;
16998;SDS011;10211;49.476;11.010;2022-12-07T08:12:36;14.87;;;9.53;;
16998;SDS011;10211;49.476;11.010;2022-12-07T08:15:25;12.27;;;7.93;;
16998;SDS011;10211;49.476;11.010;2022-12-07T08:17:53;13.97;;;9.10;;
16998;SDS011;10211;49.476;11.010;2022-12-07T08:20:20;13.30;;;8.57;;
16998;SDS011;10211;49.476;11.010;2022-12-07T08:22:47;15.67;;;9.10;;
16998;SDS011;10211;49.476;11.010;2022-12-07T08:25:14;13.67;;;9.53;;
16998;SDS011;10211;49.476;11.010;2022-12-07T08:27:41;13.80;;;8.30;;
16998;SDS011;10211;49.476;11.010;2022-12-07T08:30:08;12.27;;;7.70;;
16998;SDS011;10211;49.476;11.010;2022-12-07T08:32:36;14.93;;;8.83;;
16998;SDS011;10211;49.476;11.010;2022-12-07T08:35:03;14.47;;;8.57;;
16998;SDS011;10211;49.476;11.010;2022-12-07T08:37:30;11.73;;;7.90;;
16998;SDS011;10211;49.476;11.010;2022-12-07T08:39:58;11.60;;;7.93;;
16998;SDS011;10211;49.476;11.010;2022-12-07T08:42:25;10.20;;;7.13;;
16998;SDS011;10211;49.476;11.010;2022-12-07T08:44:54;10.83;;;7.90;;
16998;SDS011;10211;49.476;11.010;2022-12-07T08:47:21;12.07;;;7.60;;
16998;SDS011;10211;49.476;11.010;2022-12-07T08:49:51;12.97;;;7.57;;
16998;SDS011;10211;49.476;11.010;2022-12-07T08:52:19;11.37;;;7.07;;
16998;SDS011;10211;49.476;11.010;2022-12-07T08:54:46;10.33;;;7.30;;
16998;SDS011;10211;49.476;11.010;2022-12-07T08:57:14;12.80;;;7.60;;
16998;SDS011;10211;49.476;11.010;2022-12-07T08:59:41;13.40;;;6.97;;
16998;SDS011;10211;49.476;11.010;2022-12-07T09:02:08;10.50;;;8.10;;
16998;SDS011;10211;49.476;11.010;2022-12-07T09:04:34;13.57;;;7.90;;
16998;SDS011;10211;49.476;11.010;2022-12-07T09:07:03;10.53;;;7.60;;
16998;SDS011;10211;49.476;11.010;2022-12-07T09:09:31;13.53;;;7.73;;
16998;SDS011;10211;49.476;11.010;2022-12-07T09:11:57;9.47;;;6.73;;
16998;SDS011;10211;49.476;11.010;2022-12-07T09:14:24;10.63;;;6.87;;
16998;SDS011;10211;49.476;11.010;2022-12-07T09:16:51;13.30;;;6.97;;
16998;SDS011;10211;49.476;11.010;2022-12-07T09:19:18;10.97;;;6.50;;
16998;SDS011;10211;49.476;11.010;2022-12-07T09:21:45;14.27;;;7.33;;
16998;SDS011;10211;49.476;11.010;2022-12-07T09:24:13;9.63;;;6.50;;
16998;SDS011;10211;49.476;11.010;2022-12-07T09:26:41;8.97;;;6.53;;
16998;SDS011;10211;49.476;11.010;2022-12-07T09:29:08;9.63;;;6.80;;
16998;SDS011;10211;49.476;11.010;2022-12-07T09:31:35;10.07;;;7.37;;
16998;SDS011;10211;49.476;11.010;2022-12-07T09:34:03;9.93;;;6.50;;
16998;SDS011;10211;49.476;11.010;2022-12-07T09:36:30;11.23;;;7.10;;
16998;SDS011;10211;49.476;11.010;2022-12-07T09:38:58;10.30;;;7.37;;
16998;SDS011;10211;49.476;11.010;2022-12-07T09:41:26;9.43;;;6.23;;
16998;SDS011;10211;49.476;11.010;2022-12-07T09:43:58;10.23;;;7.10;;
16998;SDS011;10211;49.476;11.010;2022-12-07T09:46:30;12.20;;;7.20;;
16998;SDS011;10211;49.476;11.010;2022-12-07T09:49:02;10.47;;;7.00;;
16998;SDS011;10211;49.476;11.010;2022-12-07T09:51:30;11.90;;;7.67;;
16998;SDS011;10211;49.476;11.010;2022-12-07T09:53:57;11.90;;;6.97;;
16998;SDS011;10211;49.476;11.010;2022-12-07T09:56:28;9.37;;;6.27;;
16998;SDS011;10211;49.476;11.010;2022-12-07T09:58:58;9.03;;;6.13;;
16998;SDS011;10211;49.476;11.010;2022-12-07T10:01:27;8.13;;;6.27;;
16998;SDS011;10211;49.476;11.010;2022-12-07T10:03:58;10.27;;;6.43;;
16998;SDS011;10211;49.476;11.010;2022-12-07T10:06:33;8.83;;;7.03;;
16998;SDS011;10211;49.476;11.010;2022-12-07T10:08:59;10.03;;;6.77;;
16998;SDS011;10211;49.476;11.010;2022-12-07T10:11:28;10.63;;;6.83;;
16998;SDS011;10211;49.476;11.010;2022-12-07T10:13:55;11.73;;;6.70;;
16998;SDS011;10211;49.476;11.010;2022-12-07T10:16:39;9.07;;;6.20;;
16998;SDS011;10211;49.476;11.010;2022-12-07T10:19:20;8.47;;;6.00;;
16998;SDS011;10211;49.476;11.010;2022-12-07T10:22:02;9.53;;;6.63;;
16998;SDS011;10211;49.476;11.010;2022-12-07T10:24:34;10.37;;;6.67;;
16998;SDS011;10211;49.476;11.010;2022-12-07T10:27:09;13.83;;;7.13;;
16998;SDS011;10211;49.476;11.010;2022-12-07T10:29:47;6.47;;;5.60;;
16998;SDS011;10211;49.476;11.010;2022-12-07T10:32:26;8.87;;;6.30;;
16998;SDS011;10211;49.476;11.010;2022-12-07T10:37:47;8.30;;;6.27;;
16998;SDS011;10211;49.476;11.010;2022-12-07T10:40:28;9.53;;;6.10;;
16998;SDS011;10211;49.476;11.010;2022-12-07T10:43:07;7.77;;;5.80;;
16998;SDS011;10211;49.476;11.010;2022-12-07T10:45:53;9.57;;;5.97;;
16998;SDS011;10211;49.476;11.010;2022-12-07T10:48:33;12.07;;;7.27;;
16998;SDS011;10211;49.476;11.010;2022-12-07T10:51:06;8.80;;;6.00;;
16998;SDS011;10211;49.476;11.010;2022-12-07T10:53:40;8.63;;;6.47;;
16998;SDS011;10211;49.476;11.010;2022-12-07T10:56:24;8.57;;;6.10;;
16998;SDS011;10211;49.476;11.010;2022-12-07T10:59:04;10.37;;;6.60;;
16998;SDS011;10211;49.476;11.010;2022-12-07T11:01:57;9.40;;;6.37;;
16998;SDS011;10211;49.476;11.010;2022-12-07T11:04:33;9.10;;;5.90;;
16998;SDS011;10211;49.476;11.010;2022-12-07T11:07:07;9.80;;;6.50;;
16998;SDS011;10211;49.476;11.010;2022-12-07T11:09:47;9.37;;;6.57;;
16998;SDS011;10211;49.476;11.010;2022-12-07T11:12:24;10.80;;;6.87;;
16998;SDS011;10211;49.476;11.010;2022-12-07T11:15:02;9.63;;;6.60;;
16998;SDS011;10211;49.476;11.010;2022-12-07T11:17:40;8.07;;;6.03;;
16998;SDS011;10211;49.476;11.010;2022-12-07T11:20:14;10.60;;;6.47;;
16998;SDS011;10211;49.476;11.010;2022-12-07T11:22:55;8.73;;;6.57;;
16998;SDS011;10211;49.476;11.010;2022-12-07T11:25:30;9.77;;;6.80;;
16998;SDS011;10211;49.476;11.010;2022-12-07T11:28:03;7.60;;;6.50;;
16998;SDS011;10211;49.476;11.010;2022-12-07T11:30:42;10.80;;;7.20;;
16998;SDS011;10211;49.476;11.010;2022-12-07T11:33:19;9.67;;;6.93;;
16998;SDS011;10211;49.476;11.010;2022-12-07T11:35:55;8.03;;;6.70;;
16998;SDS011;10211;49.476;11.010;2022-12-07T11:38:31;7.80;;;6.20;;
16998;SDS011;10211;49.476;11.010;2022-12-07T11:41:05;11.03;;;6.90;;
16998;SDS011;10211;49.476;11.010;2022-12-07T11:43:41;10.60;;;6.43;;
16998;SDS011;10211;49.476;11.010;2022-12-07T11:46:23;9.63;;;6.90;;
16998;SDS011;10211;49.476;11.010;2022-12-07T11:48:55;12.00;;;7.00;;
16998;SDS011;10211;49.476;11.010;2022-12-07T11:51:28;9.63;;;6.03;;
16998;SDS011;10211;49.476;11.010;2022-12-07T11:53:59;10.70;;;6.43;;
16998;SDS011;10211;49.476;11.010;2022-12-07T11:56:29;8.03;;;6.10;;
16998;SDS011;10211;49.476;11.010;2022-12-07T11:59:02;10.37;;;7.10;;
16998;SDS011;10211;49.476;11.010;2022-12-07T12:01:42;9.20;;;6.90;;
16998;SDS011;10211;49.476;11.010;2022-12-07T12:04:19;10.77;;;6.43;;
16998;SDS011;10211;49.476;11.010;2022-12-07T12:06:54;8.97;;;7.03;;
16998;SDS011;10211;49.476;11.010;2022-12-07T12:09:22;8.50;;;6.20;;
16998;SDS011;10211;49.476;11.010;2022-12-07T12:14:49;11.10;;;7.00;;
16998;SDS011;10211;49.476;11.010;2022-12-07T12:17:31;8.60;;;6.37;;
16998;SDS011;10211;49.476;11.010;2022-12-07T12:20:16;8.60;;;5.97;;
16998;SDS011;10211;49.476;11.010;2022-12-07T12:22:48;9.03;;;7.17;;
16998;SDS011;10211;49.476;11.010;2022-12-07T12:25:20;8.97;;;6.07;;
16998;SDS011;10211;49.476;11.010;2022-12-07T12:27:50;10.60;;;7.17;;
16998;SDS011;10211;49.476;11.010;2022-12-07T12:30:30;8.93;;;6.23;;
16998;SDS011;10211;49.476;11.010;2022-12-07T12:33:17;8.33;;;6.47;;
16998;SDS011;10211;49.476;11.010;2022-12-07T12:39:10;8.77;;;6.40;;
16998;SDS011;10211;49.476;11.010;2022-12-07T12:41:52;9.13;;;6.30;;
16998;SDS011;10211;49.476;11.010;2022-12-07T12:44:38;8.93;;;6.37;;
16998;SDS011;10211;49.476;11.010;2022-12-07T12:47:37;8.40;;;6.13;;
16998;SDS011;10211;49.476;11.010;2022-12-07T12:50:16;10.40;;;6.23;;
16998;SDS011;10211;49.476;11.010;2022-12-07T12:52:50;7.27;;;5.60;;
16998;SDS011;10211;49.476;11.010;2022-12-07T12:55:42;8.80;;;6.03;;
16998;SDS011;10211;49.476;11.010;2022-12-07T12:58:33;6.33;;;5.60;;
16998;SDS011;10211;49.476;11.010;2022-12-07T13:04:21;8.27;;;5.30;;
16998;SDS011;10211;49.476;11.010;2022-12-07T13:07:06;8.37;;;6.07;;
16998;SDS011;10211;49.476;11.010;2022-12-07T13:09:39;9.93;;;6.30;;
16998;SDS011;10211;49.476;11.010;2022-12-07T13:12:12;9.67;;;6.50;;
16998;SDS011;10211;49.476;11.010;2022-12-07T13:23:13;8.80;;;5.93;;
16998;SDS011;10211;49.476;11.010;2022-12-07T13:25:45;11.77;;;6.83;;
16998;SDS011;10211;49.476;11.010;2022-12-07T13:28:18;7.83;;;5.93;;
16998;SDS011;10211;49.476;11.010;2022-12-07T13:30:47;7.13;;;5.37;;
16998;SDS011;10211;49.476;11.010;2022-12-07T13:33:24;9.97;;;6.33;;
16998;SDS011;10211;49.476;11.010;2022-12-07T13:35:55;8.73;;;6.13;;
16998;SDS011;10211;49.476;11.010;2022-12-07T13:38:27;9.17;;;6.03;;
16998;SDS011;10211;49.476;11.010;2022-12-07T13:40:59;10.23;;;6.57;;
16998;SDS011;10211;49.476;11.010;2022-12-07T13:43:30;9.87;;;6.57;;
16998;SDS011;10211;49.476;11.010;2022-12-07T13:45:57;10.87;;;6.40;;
16998;SDS011;10211;49.476;11.010;2022-12-07T13:48:28;9.13;;;6.03;;
16998;SDS011;10211;49.476;11.010;2022-12-07T13:50:59;9.40;;;6.80;;
16998;SDS011;10211;49.476;11.010;2022-12-07T13:53:29;7.93;;;6.03;;
16998;SDS011;10211;49.476;11.010;2022-12-07T13:55:56;8.87;;;6.20;;
16998;SDS011;10211;49.476;11.010;2022-12-07T13:58:24;8.87;;;6.57;;
16998;SDS011;10211;49.476;11.010;2022-12-07T14:00:52;11.00;;;6.17;;
16998;SDS011;10211;49.476;11.010;2022-12-07T14:03:25;14.10;;;6.63;;
16998;SDS011;10211;49.476;11.010;2022-12-07T14:06:10;10.27;;;6.57;;
16998;SDS011;10211;49.476;11.010;2022-12-07T14:08:43;10.50;;;6.40;;
16998;SDS011;10211;49.476;11.010;2022-12-07T14:11:12;7.33;;;5.77;;
16998;SDS011;10211;49.476;11.010;2022-12-07T14:13:44;7.80;;;6.20;;
16998;SDS011;10211;49.476;11.010;2022-12-07T14:16:19;9.43;;;7.33;;
16998;SDS011;10211;49.476;11.010;2022-12-07T14:18:52;11.17;;;6.60;;
16998;SDS011;10211;49.476;11.010;2022-12-07T14:21:21;6.07;;;5.10;;
16998;SDS011;10211;49.476;11.010;2022-12-07T14:26:46;8.23;;;4.93;;
16998;SDS011;10211;49.476;11.010;2022-12-07T14:29:30;9.10;;;5.10;;
16998;SDS011;10211;49.476;11.010;2022-12-07T14:32:17;8.83;;;6.90;;
16998;SDS011;10211;49.476;11.010;2022-12-07T14:34:53;11.27;;;7.27;;
16998;SDS011;10211;49.476;11.010;2022-12-07T14:37:25;7.73;;;4.70;;
16998;SDS011;10211;49.476;11.010;2022-12-07T14:39:53;9.10;;;5.33;;
16998;SDS011;10211;49.476;11.010;2022-12-07T14:42:21;8.87;;;5.83;;
16998;SDS011;10211;49.476;11.010;2022-12-07T14:44:52;7.27;;;4.53;;
16998;SDS011;10211;49.476;11.010;2022-12-07T14:47:18;8.30;;;4.83;;
16998;SDS011;10211;49.476;11.010;2022-12-07T14:49:45;6.47;;;5.13;;
16998;SDS011;10211;49.476;11.010;2022-12-07T14:52:13;7.17;;;5.07;;
16998;SDS011;10211;49.476;11.010;2022-12-07T14:54:42;7.87;;;5.40;;
16998;SDS011;10211;49.476;11.010;2022-12-07T14:57:11;6.60;;;4.90;;
16998;SDS011;10211;49.476;11.010;2022-12-07T14:59:38;5.87;;;4.93;;
16998;SDS011;10211;49.476;11.010;2022-12-07T15:02:06;5.33;;;4.07;;
16998;SDS011;10211;49.476;11.010;2022-12-07T15:04:35;6.67;;;4.60;;
16998;SDS011;10211;49.476;11.010;2022-12-07T15:07:02;5.87;;;4.43;;
16998;SDS011;10211;49.476;11.010;2022-12-07T15:09:32;5.67;;;4.23;;
16998;SDS011;10211;49.476;11.010;2022-12-07T15:11:58;6.47;;;5.17;;
16998;SDS011;10211;49.476;11.010;2022-12-07T15:14:28;6.50;;;4.90;;
16998;SDS011;10211;49.476;11.010;2022-12-07T15:16:54;7.30;;;5.23;;
16998;SDS011;10211;49.476;11.010;2022-12-07T15:19:22;10.07;;;6.07;;